sensor_id;sensor_type;location;lat;lon;timestamp;temperature;humidity
14737;DHT22;7459;53.590;10.062;2022-12-22T00:02:15;7.90;99.90
14737;DHT22;7459;53.590;10.062;2022-12-22T00:05:01;7.90;99.90
14737;DHT22;7459;53.590;10.062;2022-12-22T00:07:45;7.90;99.90
14737;DHT22;7459;53.590;10.062;2022-12-22T00:10:29;7.90;99.90
14737;DHT22;7459;53.590;10.062;2022-12-22T00:13:14;7.90;99.90
14737;DHT22;7459;53.590;10.062;2022-12-22T00:15:58;7.90;99.90
14737;DHT22;7459;53.590;10.062;2022-12-22T00:18:42;7.90;99.90
14737;DHT22;7459;53.590;10.062;2022-12-22T00:21:28;7.90;99.90
14737;DHT22;7459;53.590;10.062;2022-12-22T00:24:13;7.90;99.90
14737;DHT22;7459;53.590;10.062;2022-12-22T00:26:57;7.90;99.90
14737;DHT22;7459;53.590;10.062;2022-12-22T00:29:43;7.90;99.90
14737;DHT22;7459;53.590;10.062;2022-12-22T00:32:33;7.90;99.90
14737;DHT22;7459;53.590;10.062;2022-12-22T00:35:21;7.90;99.90
14737;DHT22;7459;53.590;10.062;2022-12-22T00:38:14;7.90;99.90
14737;DHT22;7459;53.590;10.062;2022-12-22T00:40:59;7.80;99.90
14737;DHT22;7459;53.590;10.062;2022-12-22T00:43:43;7.80;99.90
14737;DHT22;7459;53.590;10.062;2022-12-22T00:46:27;7.80;99.90
14737;DHT22;7459;53.590;10.062;2022-12-22T00:49:12;7.80;99.90
14737;DHT22;7459;53.590;10.062;2022-12-22T00:51:57;7.80;99.90
14737;DHT22;7459;53.590;10.062;2022-12-22T00:54:41;7.80;99.90
14737;DHT22;7459;53.590;10.062;2022-12-22T00:57:26;7.80;99.90
14737;DHT22;7459;53.590;10.062;2022-12-22T01:00:16;7.80;99.90
14737;DHT22;7459;53.590;10.062;2022-12-22T01:03:02;7.80;99.90
14737;DHT22;7459;53.590;10.062;2022-12-22T01:05:46;7.80;99.90
14737;DHT22;7459;53.590;10.062;2022-12-22T01:08:31;7.80;99.90
14737;DHT22;7459;53.590;10.062;2022-12-22T01:11:18;7.80;99.90
14737;DHT22;7459;53.590;10.062;2022-12-22T01:14:02;7.80;99.90
14737;DHT22;7459;53.590;10.062;2022-12-22T01:16:51;7.70;99.90
14737;DHT22;7459;53.590;10.062;2022-12-22T01:19:35;7.80;99.90
14737;DHT22;7459;53.590;10.062;2022-12-22T01:22:20;7.80;99.90
14737;DHT22;7459;53.590;10.062;2022-12-22T01:25:11;7.70;99.90
14737;DHT22;7459;53.590;10.062;2022-12-22T01:27:57;7.70;99.90
14737;DHT22;7459;53.590;10.062;2022-12-22T01:30:42;7.70;99.90
14737;DHT22;7459;53.590;10.062;2022-12-22T01:33:26;7.70;99.90
14737;DHT22;7459;53.590;10.062;2022-12-22T01:36:10;7.70;99.90
14737;DHT22;7459;53.590;10.062;2022-12-22T01:38:54;7.70;99.90
14737;DHT22;7459;53.590;10.062;2022-12-22T01:41:38;7.70;99.90
14737;DHT22;7459;53.590;10.062;2022-12-22T01:44:23;7.70;99.90
14737;DHT22;7459;53.590;10.062;2022-12-22T01:50:11;7.70;99.90
14737;DHT22;7459;53.590;10.062;2022-12-22T01:52:56;7.70;99.90
14737;DHT22;7459;53.590;10.062;2022-12-22T01:55:41;7.80;99.90
14737;DHT22;7459;53.590;10.062;2022-12-22T01:58:27;7.70;99.90
14737;DHT22;7459;53.590;10.062;2022-12-22T02:01:15;7.70;99.90
14737;DHT22;7459;53.590;10.062;2022-12-22T02:03:59;7.70;99.90
14737;DHT22;7459;53.590;10.062;2022-12-22T02:06:45;7.70;99.90
14737;DHT22;7459;53.590;10.062;2022-12-22T02:09:47;7.80;99.90
14737;DHT22;7459;53.590;10.062;2022-12-22T02:12:53;7.70;99.90
14737;DHT22;7459;53.590;10.062;2022-12-22T02:26:31;7.80;99.90
14737;DHT22;7459;53.590;10.062;2022-12-22T02:29:39;7.80;99.90
14737;DHT22;7459;53.590;10.062;2022-12-22T02:32:26;7.80;99.90
14737;DHT22;7459;53.590;10.062;2022-12-22T02:35:13;7.80;99.90
14737;DHT22;7459;53.590;10.062;2022-12-22T02:47:56;7.80;99.90
14737;DHT22;7459;53.590;10.062;2022-12-22T02:51:09;7.80;99.90
14737;DHT22;7459;53.590;10.062;2022-12-22T02:53:58;7.80;99.90
14737;DHT22;7459;53.590;10.062;2022-12-22T02:56:42;7.80;99.90
14737;DHT22;7459;53.590;10.062;2022-12-22T02:59:27;7.80;99.90
14737;DHT22;7459;53.590;10.062;2022-12-22T03:02:12;7.80;99.90
14737;DHT22;7459;53.590;10.062;2022-12-22T03:04:57;7.80;99.90
14737;DHT22;7459;53.590;10.062;2022-12-22T03:07:41;7.80;99.90
14737;DHT22;7459;53.590;10.062;2022-12-22T03:10:25;7.80;99.90
14737;DHT22;7459;53.590;10.062;2022-12-22T03:13:09;7.80;99.90
14737;DHT22;7459;53.590;10.062;2022-12-22T03:15:53;7.80;99.90
14737;DHT22;7459;53.590;10.062;2022-12-22T03:18:37;7.80;99.90
14737;DHT22;7459;53.590;10.062;2022-12-22T03:21:21;7.80;99.90
14737;DHT22;7459;53.590;10.062;2022-12-22T03:24:06;7.80;99.90
14737;DHT22;7459;53.590;10.062;2022-12-22T03:26:50;7.80;99.90
14737;DHT22;7459;53.590;10.062;2022-12-22T03:29:16;7.80;99.90
14737;DHT22;7459;53.590;10.062;2022-12-22T03:31:41;7.80;99.90
14737;DHT22;7459;53.590;10.062;2022-12-22T03:34:07;7.80;99.90
14737;DHT22;7459;53.590;10.062;2022-12-22T03:36:33;7.80;99.90
14737;DHT22;7459;53.590;10.062;2022-12-22T03:38:59;7.80;99.90
14737;DHT22;7459;53.590;10.062;2022-12-22T03:41:24;7.80;99.90
14737;DHT22;7459;53.590;10.062;2022-12-22T03:44:09;7.80;99.90
14737;DHT22;7459;53.590;10.062;2022-12-22T03:46:53;7.80;99.90
14737;DHT22;7459;53.590;10.062;2022-12-22T03:49:18;7.80;99.90
14737;DHT22;7459;53.590;10.062;2022-12-22T03:51:49;7.80;99.90
14737;DHT22;7459;53.590;10.062;2022-12-22T03:54:17;7.80;99.90
14737;DHT22;7459;53.590;10.062;2022-12-22T03:56:44;7.70;99.90
14737;DHT22;7459;53.590;10.062;2022-12-22T03:59:10;7.70;99.90
14737;DHT22;7459;53.590;10.062;2022-12-22T04:01:41;7.70;99.90
14737;DHT22;7459;53.590;10.062;2022-12-22T04:04:10;7.80;99.90
14737;DHT22;7459;53.590;10.062;2022-12-22T04:06:36;7.80;99.90
14737;DHT22;7459;53.590;10.062;2022-12-22T04:09:03;7.70;99.90
14737;DHT22;7459;53.590;10.062;2022-12-22T04:11:28;7.80;99.90
14737;DHT22;7459;53.590;10.062;2022-12-22T04:14:12;7.80;99.90
14737;DHT22;7459;53.590;10.062;2022-12-22T04:16:38;7.80;99.90
14737;DHT22;7459;53.590;10.062;2022-12-22T04:19:04;7.80;99.90
14737;DHT22;7459;53.590;10.062;2022-12-22T04:21:31;7.80;99.90
14737;DHT22;7459;53.590;10.062;2022-12-22T04:23:56;7.70;99.90
14737;DHT22;7459;53.590;10.062;2022-12-22T04:26:23;7.80;99.90
14737;DHT22;7459;53.590;10.062;2022-12-22T04:28:51;7.80;99.90
14737;DHT22;7459;53.590;10.062;2022-12-22T04:31:17;7.80;99.90
14737;DHT22;7459;53.590;10.062;2022-12-22T04:33:43;7.70;99.90
14737;DHT22;7459;53.590;10.062;2022-12-22T04:36:09;7.70;99.90
14737;DHT22;7459;53.590;10.062;2022-12-22T04:38:35;7.70;99.90
14737;DHT22;7459;53.590;10.062;2022-12-22T04:41:01;7.80;99.90
14737;DHT22;7459;53.590;10.062;2022-12-22T04:43:27;7.80;99.90
14737;DHT22;7459;53.590;10.062;2022-12-22T04:45:53;7.80;99.90
14737;DHT22;7459;53.590;10.062;2022-12-22T04:48:21;7.80;99.90
14737;DHT22;7459;53.590;10.062;2022-12-22T04:50:51;7.80;99.90
14737;DHT22;7459;53.590;10.062;2022-12-22T04:53:19;7.80;99.90
14737;DHT22;7459;53.590;10.062;2022-12-22T04:55:46;7.80;99.90
14737;DHT22;7459;53.590;10.062;2022-12-22T04:58:17;7.80;99.90
14737;DHT22;7459;53.590;10.062;2022-12-22T05:00:43;7.80;99.90
14737;DHT22;7459;53.590;10.062;2022-12-22T05:03:08;7.80;99.90
14737;DHT22;7459;53.590;10.062;2022-12-22T05:05:34;7.80;99.90
14737;DHT22;7459;53.590;10.062;2022-12-22T05:08:01;7.80;99.90
14737;DHT22;7459;53.590;10.062;2022-12-22T05:10:27;7.80;99.90
14737;DHT22;7459;53.590;10.062;2022-12-22T05:12:53;7.80;99.90
14737;DHT22;7459;53.590;10.062;2022-12-22T05:15:24;7.80;99.90
14737;DHT22;7459;53.590;10.062;2022-12-22T05:17:52;7.80;99.90
14737;DHT22;7459;53.590;10.062;2022-12-22T05:20:18;7.80;99.90
14737;DHT22;7459;53.590;10.062;2022-12-22T05:22:45;7.80;99.90
14737;DHT22;7459;53.590;10.062;2022-12-22T05:25:11;7.80;99.90
14737;DHT22;7459;53.590;10.062;2022-12-22T05:27:41;7.80;99.90
14737;DHT22;7459;53.590;10.062;2022-12-22T05:30:08;7.80;99.90
14737;DHT22;7459;53.590;10.062;2022-12-22T05:32:34;7.80;99.90
14737;DHT22;7459;53.590;10.062;2022-12-22T05:35:01;7.80;99.90
14737;DHT22;7459;53.590;10.062;2022-12-22T05:37:28;7.80;99.90
14737;DHT22;7459;53.590;10.062;2022-12-22T05:39:54;7.80;99.90
14737;DHT22;7459;53.590;10.062;2022-12-22T05:42:20;7.80;99.90
14737;DHT22;7459;53.590;10.062;2022-12-22T05:45:14;7.80;99.90
14737;DHT22;7459;53.590;10.062;2022-12-22T05:47:47;7.80;99.90
14737;DHT22;7459;53.590;10.062;2022-12-22T05:50:16;7.80;99.90
14737;DHT22;7459;53.590;10.062;2022-12-22T05:52:44;7.80;99.90
14737;DHT22;7459;53.590;10.062;2022-12-22T05:55:11;7.80;99.90
14737;DHT22;7459;53.590;10.062;2022-12-22T05:57:38;7.80;99.90
14737;DHT22;7459;53.590;10.062;2022-12-22T06:00:07;7.80;99.90
14737;DHT22;7459;53.590;10.062;2022-12-22T06:02:34;7.80;99.90
14737;DHT22;7459;53.590;10.062;2022-12-22T06:04:59;7.80;99.90
14737;DHT22;7459;53.590;10.062;2022-12-22T06:07:25;7.80;99.90
14737;DHT22;7459;53.590;10.062;2022-12-22T06:09:51;7.90;99.90
14737;DHT22;7459;53.590;10.062;2022-12-22T06:12:17;7.80;99.90
14737;DHT22;7459;53.590;10.062;2022-12-22T06:14:43;7.90;99.90
14737;DHT22;7459;53.590;10.062;2022-12-22T06:17:08;7.90;99.90
14737;DHT22;7459;53.590;10.062;2022-12-22T06:19:34;7.90;99.90
14737;DHT22;7459;53.590;10.062;2022-12-22T06:22:00;8.00;99.90
14737;DHT22;7459;53.590;10.062;2022-12-22T06:24:25;8.00;99.90
14737;DHT22;7459;53.590;10.062;2022-12-22T06:26:51;8.00;99.90
14737;DHT22;7459;53.590;10.062;2022-12-22T06:29:17;8.00;99.90
14737;DHT22;7459;53.590;10.062;2022-12-22T06:31:42;8.00;99.90
14737;DHT22;7459;53.590;10.062;2022-12-22T06:34:09;8.00;99.90
14737;DHT22;7459;53.590;10.062;2022-12-22T06:36:35;8.00;99.90
14737;DHT22;7459;53.590;10.062;2022-12-22T06:39:03;8.00;99.90
14737;DHT22;7459;53.590;10.062;2022-12-22T06:41:30;8.00;99.90
14737;DHT22;7459;53.590;10.062;2022-12-22T06:44:14;8.00;99.90
14737;DHT22;7459;53.590;10.062;2022-12-22T06:46:40;8.00;99.90
14737;DHT22;7459;53.590;10.062;2022-12-22T06:49:05;8.00;99.90
14737;DHT22;7459;53.590;10.062;2022-12-22T06:51:31;8.00;99.90
14737;DHT22;7459;53.590;10.062;2022-12-22T06:53:57;8.00;99.90
14737;DHT22;7459;53.590;10.062;2022-12-22T06:56:22;8.10;99.90
14737;DHT22;7459;53.590;10.062;2022-12-22T06:58:48;8.10;99.90
14737;DHT22;7459;53.590;10.062;2022-12-22T07:01:14;8.10;99.90
14737;DHT22;7459;53.590;10.062;2022-12-22T07:03:39;8.10;99.90
14737;DHT22;7459;53.590;10.062;2022-12-22T07:06:05;8.10;99.90
14737;DHT22;7459;53.590;10.062;2022-12-22T07:08:31;8.10;99.90
14737;DHT22;7459;53.590;10.062;2022-12-22T07:10:57;8.10;99.90
14737;DHT22;7459;53.590;10.062;2022-12-22T07:13:31;8.10;99.90
14737;DHT22;7459;53.590;10.062;2022-12-22T07:15:59;8.10;99.90
14737;DHT22;7459;53.590;10.062;2022-12-22T07:18:31;8.10;99.90
14737;DHT22;7459;53.590;10.062;2022-12-22T07:20:58;8.10;99.90
14737;DHT22;7459;53.590;10.062;2022-12-22T07:23:29;8.10;99.90
14737;DHT22;7459;53.590;10.062;2022-12-22T07:25:55;8.10;99.90
14737;DHT22;7459;53.590;10.062;2022-12-22T07:28:21;8.10;99.90
14737;DHT22;7459;53.590;10.062;2022-12-22T07:30:48;8.20;99.90
14737;DHT22;7459;53.590;10.062;2022-12-22T07:33:14;8.10;99.90
14737;DHT22;7459;53.590;10.062;2022-12-22T07:35:40;8.10;99.90
14737;DHT22;7459;53.590;10.062;2022-12-22T07:38:06;8.10;99.90
14737;DHT22;7459;53.590;10.062;2022-12-22T07:40:31;8.10;99.90
14737;DHT22;7459;53.590;10.062;2022-12-22T07:42:58;8.10;99.90
14737;DHT22;7459;53.590;10.062;2022-12-22T07:45:25;8.10;99.90
14737;DHT22;7459;53.590;10.062;2022-12-22T07:47:51;8.10;99.90
14737;DHT22;7459;53.590;10.062;2022-12-22T07:50:19;8.10;99.90
14737;DHT22;7459;53.590;10.062;2022-12-22T07:52:58;8.10;99.90
14737;DHT22;7459;53.590;10.062;2022-12-22T07:55:27;8.10;99.90
14737;DHT22;7459;53.590;10.062;2022-12-22T07:57:55;8.10;99.90
14737;DHT22;7459;53.590;10.062;2022-12-22T08:00:21;8.10;99.90
14737;DHT22;7459;53.590;10.062;2022-12-22T08:02:55;8.10;99.90
14737;DHT22;7459;53.590;10.062;2022-12-22T08:05:23;8.10;99.90
14737;DHT22;7459;53.590;10.062;2022-12-22T08:07:50;8.10;99.90
14737;DHT22;7459;53.590;10.062;2022-12-22T08:10:18;8.10;99.90
14737;DHT22;7459;53.590;10.062;2022-12-22T08:12:44;8.10;99.90
14737;DHT22;7459;53.590;10.062;2022-12-22T08:15:10;8.10;99.90
14737;DHT22;7459;53.590;10.062;2022-12-22T08:17:37;8.10;99.90
14737;DHT22;7459;53.590;10.062;2022-12-22T08:20:03;8.10;99.90
14737;DHT22;7459;53.590;10.062;2022-12-22T08:22:30;8.10;99.90
14737;DHT22;7459;53.590;10.062;2022-12-22T08:24:56;8.10;99.90
14737;DHT22;7459;53.590;10.062;2022-12-22T08:27:34;8.10;99.90
14737;DHT22;7459;53.590;10.062;2022-12-22T08:30:08;8.10;99.90
14737;DHT22;7459;53.590;10.062;2022-12-22T08:32:36;8.00;99.90
14737;DHT22;7459;53.590;10.062;2022-12-22T08:35:03;8.10;99.90
14737;DHT22;7459;53.590;10.062;2022-12-22T08:37:30;8.00;99.90
14737;DHT22;7459;53.590;10.062;2022-12-22T08:40:02;8.00;99.90
14737;DHT22;7459;53.590;10.062;2022-12-22T08:42:29;8.00;99.90
14737;DHT22;7459;53.590;10.062;2022-12-22T08:44:55;8.00;99.90
14737;DHT22;7459;53.590;10.062;2022-12-22T08:47:21;8.10;99.90
14737;DHT22;7459;53.590;10.062;2022-12-22T08:49:48;8.00;99.90
14737;DHT22;7459;53.590;10.062;2022-12-22T08:52:15;8.10;99.90
14737;DHT22;7459;53.590;10.062;2022-12-22T08:54:41;8.00;99.90
14737;DHT22;7459;53.590;10.062;2022-12-22T08:57:06;8.00;99.90
14737;DHT22;7459;53.590;10.062;2022-12-22T08:59:32;8.00;99.90
14737;DHT22;7459;53.590;10.062;2022-12-22T09:01:58;8.00;99.90
14737;DHT22;7459;53.590;10.062;2022-12-22T09:04:30;8.00;99.90
14737;DHT22;7459;53.590;10.062;2022-12-22T09:06:57;8.10;99.90
14737;DHT22;7459;53.590;10.062;2022-12-22T09:09:24;8.10;99.90
14737;DHT22;7459;53.590;10.062;2022-12-22T09:11:50;8.10;99.90
14737;DHT22;7459;53.590;10.062;2022-12-22T09:14:16;8.10;99.90
14737;DHT22;7459;53.590;10.062;2022-12-22T09:16:42;8.10;99.90
14737;DHT22;7459;53.590;10.062;2022-12-22T09:19:08;8.10;99.90
14737;DHT22;7459;53.590;10.062;2022-12-22T09:21:34;8.10;99.90
14737;DHT22;7459;53.590;10.062;2022-12-22T09:24:01;8.10;99.90
14737;DHT22;7459;53.590;10.062;2022-12-22T09:26:28;8.10;99.90
14737;DHT22;7459;53.590;10.062;2022-12-22T09:28:55;8.10;99.90
14737;DHT22;7459;53.590;10.062;2022-12-22T09:31:23;8.10;99.90
14737;DHT22;7459;53.590;10.062;2022-12-22T09:33:50;8.20;99.90
14737;DHT22;7459;53.590;10.062;2022-12-22T09:36:18;8.20;99.90
14737;DHT22;7459;53.590;10.062;2022-12-22T09:38:45;8.20;99.90
14737;DHT22;7459;53.590;10.062;2022-12-22T09:41:17;8.20;99.90
14737;DHT22;7459;53.590;10.062;2022-12-22T09:43:47;8.20;99.90
14737;DHT22;7459;53.590;10.062;2022-12-22T09:46:28;8.20;99.90
14737;DHT22;7459;53.590;10.062;2022-12-22T09:48:56;8.20;99.90
14737;DHT22;7459;53.590;10.062;2022-12-22T09:51:23;8.20;99.90
14737;DHT22;7459;53.590;10.062;2022-12-22T09:53:58;8.20;99.90
14737;DHT22;7459;53.590;10.062;2022-12-22T09:56:26;8.20;99.90
14737;DHT22;7459;53.590;10.062;2022-12-22T09:58:52;8.20;99.90
14737;DHT22;7459;53.590;10.062;2022-12-22T10:02:01;8.20;99.90
14737;DHT22;7459;53.590;10.062;2022-12-22T10:05:19;8.20;99.90
14737;DHT22;7459;53.590;10.062;2022-12-22T10:07:57;8.20;99.90
14737;DHT22;7459;53.590;10.062;2022-12-22T10:10:28;8.10;99.90
14737;DHT22;7459;53.590;10.062;2022-12-22T10:12:57;8.10;99.90
14737;DHT22;7459;53.590;10.062;2022-12-22T10:15:25;8.10;99.90
14737;DHT22;7459;53.590;10.062;2022-12-22T10:17:53;8.10;99.90
14737;DHT22;7459;53.590;10.062;2022-12-22T10:20:41;8.10;99.90
14737;DHT22;7459;53.590;10.062;2022-12-22T10:28:24;8.10;99.90
14737;DHT22;7459;53.590;10.062;2022-12-22T10:33:42;8.10;99.90
14737;DHT22;7459;53.590;10.062;2022-12-22T10:36:09;8.10;99.90
14737;DHT22;7459;53.590;10.062;2022-12-22T10:38:40;8.20;99.90
14737;DHT22;7459;53.590;10.062;2022-12-22T10:41:23;8.20;99.90
14737;DHT22;7459;53.590;10.062;2022-12-22T10:43:53;8.30;99.90
14737;DHT22;7459;53.590;10.062;2022-12-22T10:46:40;8.20;99.90
14737;DHT22;7459;53.590;10.062;2022-12-22T10:52:12;8.20;99.90
14737;DHT22;7459;53.590;10.062;2022-12-22T10:54:41;8.20;99.90
14737;DHT22;7459;53.590;10.062;2022-12-22T10:59:55;8.20;99.90
14737;DHT22;7459;53.590;10.062;2022-12-22T11:04:49;8.20;99.90
14737;DHT22;7459;53.590;10.062;2022-12-22T11:07:16;8.20;99.90
14737;DHT22;7459;53.590;10.062;2022-12-22T11:09:41;8.30;99.90
14737;DHT22;7459;53.590;10.062;2022-12-22T11:12:20;8.20;99.90
14737;DHT22;7459;53.590;10.062;2022-12-22T11:17:57;8.30;99.90
14737;DHT22;7459;53.590;10.062;2022-12-22T11:21:27;8.20;99.90
14737;DHT22;7459;53.590;10.062;2022-12-22T11:24:21;8.30;99.90
14737;DHT22;7459;53.590;10.062;2022-12-22T11:30:27;8.30;99.90
14737;DHT22;7459;53.590;10.062;2022-12-22T11:33:33;8.30;99.90
14737;DHT22;7459;53.590;10.062;2022-12-22T11:36:36;8.30;99.90
14737;DHT22;7459;53.590;10.062;2022-12-22T11:39:14;8.30;99.90
14737;DHT22;7459;53.590;10.062;2022-12-22T11:50:40;8.50;99.90
14737;DHT22;7459;53.590;10.062;2022-12-22T11:53:43;8.50;99.90
14737;DHT22;7459;53.590;10.062;2022-12-22T11:56:32;8.50;99.90
14737;DHT22;7459;53.590;10.062;2022-12-22T12:05:35;8.50;99.90
14737;DHT22;7459;53.590;10.062;2022-12-22T12:08:41;8.50;99.90
14737;DHT22;7459;53.590;10.062;2022-12-22T12:11:29;8.50;99.90
14737;DHT22;7459;53.590;10.062;2022-12-22T12:14:23;8.50;99.90
14737;DHT22;7459;53.590;10.062;2022-12-22T12:17:04;8.50;99.90
14737;DHT22;7459;53.590;10.062;2022-12-22T12:20:02;8.60;99.90
14737;DHT22;7459;53.590;10.062;2022-12-22T12:25:50;8.60;99.90
14737;DHT22;7459;53.590;10.062;2022-12-22T12:31:41;8.50;99.90
14737;DHT22;7459;53.590;10.062;2022-12-22T12:34:14;8.50;99.90
14737;DHT22;7459;53.590;10.062;2022-12-22T12:37:07;8.50;99.90
14737;DHT22;7459;53.590;10.062;2022-12-22T12:40:15;8.50;99.90
14737;DHT22;7459;53.590;10.062;2022-12-22T12:42:54;8.50;99.90
14737;DHT22;7459;53.590;10.062;2022-12-22T12:45:42;8.40;99.90
14737;DHT22;7459;53.590;10.062;2022-12-22T12:50:54;8.40;99.90
14737;DHT22;7459;53.590;10.062;2022-12-22T12:53:25;8.40;99.90
14737;DHT22;7459;53.590;10.062;2022-12-22T12:55:55;8.40;99.90
14737;DHT22;7459;53.590;10.062;2022-12-22T13:04:03;8.40;99.90
14737;DHT22;7459;53.590;10.062;2022-12-22T13:06:52;8.40;99.90
14737;DHT22;7459;53.590;10.062;2022-12-22T13:09:21;8.40;99.90
14737;DHT22;7459;53.590;10.062;2022-12-22T13:11:47;8.40;99.90
14737;DHT22;7459;53.590;10.062;2022-12-22T13:17:39;8.50;99.90
14737;DHT22;7459;53.590;10.062;2022-12-22T13:20:17;8.50;99.90
14737;DHT22;7459;53.590;10.062;2022-12-22T13:22:50;8.50;99.90
14737;DHT22;7459;53.590;10.062;2022-12-22T13:25:17;8.50;99.90
14737;DHT22;7459;53.590;10.062;2022-12-22T13:27:43;8.50;99.90
14737;DHT22;7459;53.590;10.062;2022-12-22T13:30:20;8.50;99.90
14737;DHT22;7459;53.590;10.062;2022-12-22T13:32:48;8.50;99.90
14737;DHT22;7459;53.590;10.062;2022-12-22T13:35:21;8.50;99.90
14737;DHT22;7459;53.590;10.062;2022-12-22T13:37:54;8.40;99.90
14737;DHT22;7459;53.590;10.062;2022-12-22T13:40:39;8.40;99.90
14737;DHT22;7459;53.590;10.062;2022-12-22T13:43:12;8.40;99.90
14737;DHT22;7459;53.590;10.062;2022-12-22T13:48:20;8.40;99.90
14737;DHT22;7459;53.590;10.062;2022-12-22T13:50:53;8.40;99.90
14737;DHT22;7459;53.590;10.062;2022-12-22T13:53:34;8.40;99.90
14737;DHT22;7459;53.590;10.062;2022-12-22T13:56:04;8.40;99.90
14737;DHT22;7459;53.590;10.062;2022-12-22T13:58:39;8.40;99.90
14737;DHT22;7459;53.590;10.062;2022-12-22T14:03:43;8.40;99.90
14737;DHT22;7459;53.590;10.062;2022-12-22T14:08:53;8.50;99.90
14737;DHT22;7459;53.590;10.062;2022-12-22T14:14:45;8.40;99.90
14737;DHT22;7459;53.590;10.062;2022-12-22T14:17:29;8.40;99.90
14737;DHT22;7459;53.590;10.062;2022-12-22T14:20:00;8.50;99.90
14737;DHT22;7459;53.590;10.062;2022-12-22T14:22:45;8.40;99.90
14737;DHT22;7459;53.590;10.062;2022-12-22T14:25:27;8.40;99.90
14737;DHT22;7459;53.590;10.062;2022-12-22T14:27:56;8.40;99.90
14737;DHT22;7459;53.590;10.062;2022-12-22T14:30:35;8.40;99.90
14737;DHT22;7459;53.590;10.062;2022-12-22T14:36:14;8.40;99.90
14737;DHT22;7459;53.590;10.062;2022-12-22T14:38:55;8.40;99.90
14737;DHT22;7459;53.590;10.062;2022-12-22T14:41:31;8.40;99.90
14737;DHT22;7459;53.590;10.062;2022-12-22T14:47:05;8.40;99.90
14737;DHT22;7459;53.590;10.062;2022-12-22T14:52:36;8.40;99.90
14737;DHT22;7459;53.590;10.062;2022-12-22T15:00:34;8.30;99.90
14737;DHT22;7459;53.590;10.062;2022-12-22T15:03:22;8.20;99.90
14737;DHT22;7459;53.590;10.062;2022-12-22T15:05:50;8.20;99.90
14737;DHT22;7459;53.590;10.062;2022-12-22T15:08:39;8.20;99.90
14737;DHT22;7459;53.590;10.062;2022-12-22T15:11:15;8.20;99.90
14737;DHT22;7459;53.590;10.062;2022-12-22T15:13:42;8.20;99.90
14737;DHT22;7459;53.590;10.062;2022-12-22T15:16:16;8.10;99.90
14737;DHT22;7459;53.590;10.062;2022-12-22T15:18:44;8.10;99.90
14737;DHT22;7459;53.590;10.062;2022-12-22T15:21:12;8.20;99.90
14737;DHT22;7459;53.590;10.062;2022-12-22T15:23:40;8.10;99.90
14737;DHT22;7459;53.590;10.062;2022-12-22T15:26:06;8.10;99.90
14737;DHT22;7459;53.590;10.062;2022-12-22T15:28:32;8.10;99.90
14737;DHT22;7459;53.590;10.062;2022-12-22T15:30:58;8.10;99.90
14737;DHT22;7459;53.590;10.062;2022-12-22T15:33:24;8.00;99.90
14737;DHT22;7459;53.590;10.062;2022-12-22T15:35:50;8.00;99.90
14737;DHT22;7459;53.590;10.062;2022-12-22T15:38:21;8.00;99.90
14737;DHT22;7459;53.590;10.062;2022-12-22T15:40:48;8.00;99.90
14737;DHT22;7459;53.590;10.062;2022-12-22T15:43:14;8.00;99.90
14737;DHT22;7459;53.590;10.062;2022-12-22T15:45:41;8.00;99.90
14737;DHT22;7459;53.590;10.062;2022-12-22T15:48:16;8.10;99.90
14737;DHT22;7459;53.590;10.062;2022-12-22T15:50:45;8.00;99.90
14737;DHT22;7459;53.590;10.062;2022-12-22T15:53:14;8.00;99.90
14737;DHT22;7459;53.590;10.062;2022-12-22T15:55:44;8.00;99.90
14737;DHT22;7459;53.590;10.062;2022-12-22T15:58:12;8.00;99.90
14737;DHT22;7459;53.590;10.062;2022-12-22T16:00:40;8.00;99.90
14737;DHT22;7459;53.590;10.062;2022-12-22T16:03:05;7.90;99.90
14737;DHT22;7459;53.590;10.062;2022-12-22T16:05:32;7.90;99.90
14737;DHT22;7459;53.590;10.062;2022-12-22T16:07:59;7.90;99.90
14737;DHT22;7459;53.590;10.062;2022-12-22T16:10:28;7.80;99.90
14737;DHT22;7459;53.590;10.062;2022-12-22T16:12:56;7.80;99.90
14737;DHT22;7459;53.590;10.062;2022-12-22T16:15:28;7.90;99.90
14737;DHT22;7459;53.590;10.062;2022-12-22T16:17:59;7.80;99.90
14737;DHT22;7459;53.590;10.062;2022-12-22T16:20:28;7.80;99.90
14737;DHT22;7459;53.590;10.062;2022-12-22T16:22:55;7.80;99.90
14737;DHT22;7459;53.590;10.062;2022-12-22T16:25:25;7.80;99.90
14737;DHT22;7459;53.590;10.062;2022-12-22T16:27:53;7.70;99.90
14737;DHT22;7459;53.590;10.062;2022-12-22T16:30:24;7.70;99.90
14737;DHT22;7459;53.590;10.062;2022-12-22T16:32:52;7.70;99.90
14737;DHT22;7459;53.590;10.062;2022-12-22T16:35:21;7.60;99.90
14737;DHT22;7459;53.590;10.062;2022-12-22T16:37:48;7.60;99.90
14737;DHT22;7459;53.590;10.062;2022-12-22T16:40:16;7.60;99.90
14737;DHT22;7459;53.590;10.062;2022-12-22T16:43:02;7.60;99.90
14737;DHT22;7459;53.590;10.062;2022-12-22T16:45:30;7.60;99.90
14737;DHT22;7459;53.590;10.062;2022-12-22T16:47:59;7.60;99.90
14737;DHT22;7459;53.590;10.062;2022-12-22T16:50:28;7.60;99.90
14737;DHT22;7459;53.590;10.062;2022-12-22T16:53:04;7.60;99.90
14737;DHT22;7459;53.590;10.062;2022-12-22T16:55:30;7.60;99.90
14737;DHT22;7459;53.590;10.062;2022-12-22T16:57:57;7.60;99.90
14737;DHT22;7459;53.590;10.062;2022-12-22T17:00:30;7.60;99.90
14737;DHT22;7459;53.590;10.062;2022-12-22T17:03:12;7.60;99.90
14737;DHT22;7459;53.590;10.062;2022-12-22T17:05:49;7.60;99.90
14737;DHT22;7459;53.590;10.062;2022-12-22T17:08:36;7.50;99.90
14737;DHT22;7459;53.590;10.062;2022-12-22T17:11:06;7.60;99.90
14737;DHT22;7459;53.590;10.062;2022-12-22T17:13:33;7.60;99.90
14737;DHT22;7459;53.590;10.062;2022-12-22T17:15:59;7.60;99.90
14737;DHT22;7459;53.590;10.062;2022-12-22T17:18:29;7.60;99.90
14737;DHT22;7459;53.590;10.062;2022-12-22T17:20:57;7.60;99.90
14737;DHT22;7459;53.590;10.062;2022-12-22T17:23:37;7.60;99.90
14737;DHT22;7459;53.590;10.062;2022-12-22T17:26:09;7.60;99.90
14737;DHT22;7459;53.590;10.062;2022-12-22T17:28:37;7.60;99.90
14737;DHT22;7459;53.590;10.062;2022-12-22T17:31:03;7.60;99.90
14737;DHT22;7459;53.590;10.062;2022-12-22T17:33:30;7.60;99.90
14737;DHT22;7459;53.590;10.062;2022-12-22T17:35:57;7.50;99.90
14737;DHT22;7459;53.590;10.062;2022-12-22T17:38:24;7.50;99.90
14737;DHT22;7459;53.590;10.062;2022-12-22T17:40:52;7.50;99.90
14737;DHT22;7459;53.590;10.062;2022-12-22T17:43:19;7.50;99.90
14737;DHT22;7459;53.590;10.062;2022-12-22T17:45:46;7.50;99.90
14737;DHT22;7459;53.590;10.062;2022-12-22T17:48:15;7.50;99.90
14737;DHT22;7459;53.590;10.062;2022-12-22T17:50:44;7.50;99.90
14737;DHT22;7459;53.590;10.062;2022-12-22T17:53:17;7.50;99.90
14737;DHT22;7459;53.590;10.062;2022-12-22T17:55:45;7.50;99.90
14737;DHT22;7459;53.590;10.062;2022-12-22T17:58:16;7.50;99.90
14737;DHT22;7459;53.590;10.062;2022-12-22T18:00:42;7.50;99.90
14737;DHT22;7459;53.590;10.062;2022-12-22T18:03:11;7.50;99.90
14737;DHT22;7459;53.590;10.062;2022-12-22T18:05:40;7.50;99.90
14737;DHT22;7459;53.590;10.062;2022-12-22T18:08:13;7.50;99.90
14737;DHT22;7459;53.590;10.062;2022-12-22T18:10:41;7.40;99.90
14737;DHT22;7459;53.590;10.062;2022-12-22T18:13:20;7.40;99.90